EGGD Airport Information

Runway Information
Runway 09 Length 6598 ft width 151 ft
Elevation 613 ft Threshold 0 ft Heading 86
Runway 27 Length 6598 ft Width 151 ft
Elevation 601 ft Threshold 443 ft Heading 266
Airport Frequencies
Type ATIS Name ATIS Frequency 126.025 MHZ
Type GND Name GND Frequency 121.925 MHZ
Type RDR Name RDR Frequency 136.075 MHZ
Type TWR Name TWR Frequency 133.85 MHZ
Airport Navaids
Type NDB Name Bristol Frequency 414 KHZ
Airport Weather Information & NOTAM
ADDS - METARS form results

(0758 UTC 23 October 2021)
Data provider http://aviationweather.gov/metar/data/
 
METAR text: EGGD 230750Z AUTO 19005KT 160V230 9999 OVC035 10/06 Q1024
Conditions at: EGGD (BRISTOL/LULSGATE, GB) observed 0750 UTC 23 October 2021
Temperature: 10.0°C (50°F)
Dewpoint: 6.0°C (43°F) [RH = 76%]
Pressure (altimeter): 30.24 inches Hg (1024.0 mb)
Winds: from the S (190 degrees) at 6 MPH (5 knots; 2.6 m/s)
Visibility: 6 or more miles (10+ km)
Ceiling: 3500 feet AGL
Clouds: overcast cloud deck at 3500 feet AGL
Weather: no significant weather observed at this time

METAR text: EGGD 230720Z AUTO 20004KT 170V230 9999 OVC035 09/06 Q1024
Conditions at: EGGD (BRISTOL/LULSGATE, GB) observed 0720 UTC 23 October 2021
Temperature: 9.0°C (48°F)
Dewpoint: 6.0°C (43°F) [RH = 81%]
Pressure (altimeter): 30.24 inches Hg (1024.0 mb)
Winds: from the SSW (200 degrees) at 5 MPH (4 knots; 2.1 m/s)
Visibility: 6 or more miles (10+ km)
Ceiling: 3500 feet AGL
Clouds: overcast cloud deck at 3500 feet AGL
Weather: no significant weather observed at this time

Forecast for: EGGD (BRISTOL/LULSGATE, GB)
Text: TAF EGGD 230453Z 2306/2406 19007KT 9999 SCT035
Forecast period: 0600 UTC 23 October 2021 to 0600 UTC 24 October 2021
Forecast type: FROM: standard forecast or significant change
Winds: from the S (190 degrees) at 8 MPH (7 knots; 3.6 m/s)
Visibility: 6 or more miles (10+ km)
Ceiling: at least 12,000 feet AGL
Clouds: scattered clouds at 3500 feet AGL
Weather: no significant weather forecast for this period
Text: PROB30 2320/2406 19015G25KT
Forecast period: 2000 UTC 23 October 2021 to 0600 UTC 24 October 2021
Forecast type: PROBABLE: 30 percent likelihood of the following during this time
Winds: from the S (190 degrees) at 17 MPH (15 knots; 7.7 m/s)
gusting to 29 MPH (25 knots; 12.9 m/s)
Visibility: missing
Ceiling: unknown
Clouds: missing
Weather: no significant weather forecast for this period